Terminal Aerodrome Forecast
Issued by NWS Central Illinois

Home | Current Version | Previous Version | Text Only | Print | Product List | Glossary On
Versions: 1 2 3 4 5 6 7 8 9 10 11 12 13 14 15 16 17 18 19 20 21 22 23 24 25 26 27
941
FTUS43 KILX 241131
TAFPIA
TAF
KPIA 241131Z 2412/2512 19006KT 6SM BR SCT250
     FM241230 18005KT 5SM BR SCT250
     FM241400 21010KT P6SM SCT035
     FM242000 24012KT P6SM VCTS SCT045CB
     FM250600 VRB03KT 5SM BR VCTS SCT030CB=

USA.gov is the U.S. government's official web portal to all federal, state and local government web resources and services.